Time;durP1;ratioP1;P1;durP2;ratioP2;P2;SDS_P1;SDS_P2;PMS_P1;PMS_P2;Temp;Humidity;BMP_temperature;BMP_pressure;BME280_temperature;BME280_humidity;BME280_pressure;Samples;Min_cycle;Max_cycle;Signal;HPM_P1;HPM_P2
2022/07/13 00:00:12;;;;;;;14.57;13.77;;;;;;;16.49;58.93;101148.13;5023761;28;20048;-77
2022/07/13 00:02:38;;;;;;;13.05;12.25;;;;;;;16.49;58.46;101148.13;5019723;28;20124;-76
2022/07/13 00:05:05;;;;;;;13.48;12.68;;;;;;;16.36;60.58;101154.63;5024775;28;20129;-76
2022/07/13 00:07:31;;;;;;;12.57;11.63;;;;;;;16.14;60.83;101152.38;5021968;28;20088;-76
2022/07/13 00:09:56;;;;;;;12.93;12.02;;;;;;;16.02;60.79;101157.06;5023253;28;20033;-77
2022/07/13 00:12:21;;;;;;;10.15;9.45;;;;;;;15.98;61.35;101151.78;5022178;28;20030;-77
2022/07/13 00:14:46;;;;;;;11.57;10.93;;;;;;;16.01;61.03;101145.53;5021277;28;20092;-77
2022/07/13 00:17:12;;;;;;;11.27;10.38;;;;;;;16.06;60.81;101149.00;5032149;28;20037;-77
2022/07/13 00:19:37;;;;;;;11.48;10.57;;;;;;;16.03;61.02;101157.00;5022640;28;20173;-77
2022/07/13 00:22:02;;;;;;;12.73;11.85;;;;;;;15.85;62.06;101158.25;5023324;28;20029;-77
2022/07/13 00:24:28;;;;;;;13.07;11.93;;;;;;;15.66;63.80;101154.97;5020603;28;20045;-76
2022/07/13 00:26:53;;;;;;;16.17;15.02;;;;;;;15.57;63.98;101156.03;5020349;28;20112;-77
2022/07/13 00:29:18;;;;;;;14.32;13.05;;;;;;;15.59;63.74;101156.00;5023326;28;20108;-77
2022/07/13 00:31:46;;;;;;;13.63;12.48;;;;;;;15.60;63.61;101155.09;5019738;28;20038;-76
2022/07/13 00:34:12;;;;;;;10.80;10.00;;;;;;;15.62;62.97;101153.28;5024169;28;20045;-77
2022/07/13 00:36:37;;;;;;;12.50;11.80;;;;;;;15.68;62.56;101152.31;5016843;28;20076;-76
2022/07/13 00:39:03;;;;;;;15.48;14.45;;;;;;;15.64;63.10;101154.16;5026555;28;20497;-77
2022/07/13 00:41:28;;;;;;;16.33;15.43;;;;;;;15.59;63.46;101142.72;5021517;28;20507;-77
2022/07/13 00:44:05;;;;;;;14.07;13.18;;;;;;;15.61;63.46;101146.19;5021013;28;20068;-77
2022/07/13 00:46:31;;;;;;;14.32;13.27;;;;;;;15.53;64.05;101145.44;5019859;28;20030;-77
2022/07/13 00:48:56;;;;;;;16.55;15.38;;;;;;;15.55;63.58;101148.97;5023383;28;20035;-76
2022/07/13 00:51:21;;;;;;;16.98;15.85;;;;;;;15.42;63.59;101148.28;5034022;28;20041;-77
2022/07/13 00:53:47;;;;;;;15.77;14.63;;;;;;;15.38;63.96;101153.69;5023014;28;20510;-77
2022/07/13 00:56:12;;;;;;;13.60;12.38;;;;;;;15.37;62.92;101143.97;5018288;28;20425;-77
2022/07/13 00:58:38;;;;;;;18.48;17.10;;;;;;;15.30;63.99;101149.38;5039320;28;20034;-77
2022/07/13 01:01:03;;;;;;;14.45;13.35;;;;;;;15.27;64.67;101151.19;5023211;28;20182;-77
2022/07/13 01:03:29;;;;;;;10.85;9.82;;;;;;;15.29;64.50;101146.72;5021073;28;20100;-77
2022/07/13 01:05:54;;;;;;;12.45;11.23;;;;;;;15.34;64.23;101144.88;5022303;28;20025;-77
2022/07/13 01:08:20;;;;;;;13.93;12.75;;;;;;;15.45;63.80;101139.38;5017545;28;20037;-76
2022/07/13 01:10:47;;;;;;;15.13;10.13;;;;;;;15.58;63.73;101130.28;5021404;28;20125;-77
2022/07/13 01:13:15;;;;;;;10.60;9.55;;;;;;;15.74;62.96;101128.28;5019371;28;20153;-76
2022/07/13 01:15:41;;;;;;;12.43;10.65;;;;;;;15.89;63.48;101135.09;5023071;28;20071;-76
2022/07/13 01:18:07;;;;;;;12.63;11.02;;;;;;;15.92;63.65;101138.56;5021112;28;20111;-76
2022/07/13 01:20:32;;;;;;;14.43;13.25;;;;;;;15.80;63.74;101132.59;5021697;28;20510;-76
2022/07/13 01:23:09;;;;;;;14.95;13.75;;;;;;;15.88;64.14;101136.03;5021785;28;20492;-76
2022/07/13 01:25:34;;;;;;;13.10;12.20;;;;;;;15.95;62.87;101140.31;5018775;28;20036;-77
2022/07/13 01:27:59;;;;;;;11.32;10.57;;;;;;;16.03;62.98;101130.38;5020401;28;20419;-77
2022/07/13 01:30:25;;;;;;;13.15;10.65;;;;;;;16.13;62.04;101131.09;5028309;28;20395;-76
2022/07/13 01:32:51;;;;;;;12.60;11.70;;;;;;;16.16;64.49;101134.56;5021925;28;20029;-76
2022/07/13 01:35:18;;;;;;;13.93;11.05;;;;;;;16.10;63.92;101134.69;5019096;28;20034;-76
2022/07/13 01:37:45;;;;;;;12.48;11.68;;;;;;;16.06;64.44;101137.44;5027879;28;20496;-76
2022/07/13 01:40:12;;;;;;;11.38;10.68;;;;;;;16.08;64.17;101131.19;5021884;28;20044;-75
2022/07/13 01:42:46;;;;;;;12.23;11.52;;;;;;;16.22;63.66;101120.28;5031933;28;20401;-75
2022/07/13 01:45:13;;;;;;;12.50;11.80;;;;;;;16.37;62.44;101108.41;5005872;28;20136;-76
2022/07/13 01:47:40;;;;;;;13.65;12.73;;;;;;;16.43;63.11;101103.84;5028996;28;20026;-76
2022/07/13 01:50:07;;;;;;;12.57;11.57;;;;;;;16.45;62.84;101095.81;5023624;28;20112;-76
2022/07/13 01:52:35;;;;;;;14.32;13.38;;;;;;;16.43;63.23;101087.84;5019324;28;20125;-76
2022/07/13 01:55:01;;;;;;;14.27;13.27;;;;;;;16.55;62.48;101088.50;5022070;28;20054;-76
2022/07/13 01:57:28;;;;;;;13.95;13.15;;;;;;;16.57;62.18;101087.56;5034528;28;20029;-76
2022/07/13 01:59:58;;;;;;;15.52;14.35;;;;;;;16.63;62.62;101087.41;5021242;28;20029;-76
2022/07/13 02:02:23;;;;;;;14.85;14.05;;;;;;;16.66;61.67;101073.13;5018030;28;20156;-76
2022/07/13 02:04:48;;;;;;;12.68;11.85;;;;;;;16.73;61.62;101080.09;5019099;28;20116;-76
2022/07/13 02:07:13;;;;;;;14.40;13.40;;;;;;;16.72;61.84;101085.47;5028786;28;20202;-76
2022/07/13 02:09:39;;;;;;;14.35;13.18;;;;;;;16.71;62.01;101089.91;5016838;28;20034;-75
2022/07/13 02:12:06;;;;;;;12.52;11.73;;;;;;;16.71;62.12;101089.03;5023255;28;20106;-76
2022/07/13 02:14:31;;;;;;;11.70;11.00;;;;;;;16.59;61.92;101083.06;5020761;28;20582;-76
2022/07/13 02:16:56;;;;;;;13.30;12.40;;;;;;;16.53;62.50;101088.53;5024221;28;20416;-75
2022/07/13 02:19:22;;;;;;;11.98;11.18;;;;;;;16.52;62.44;101089.44;5022723;28;20034;-76
2022/07/13 02:21:47;;;;;;;13.55;12.65;;;;;;;16.63;61.97;101075.88;5021355;28;20068;-76
2022/07/13 02:24:14;;;;;;;12.75;11.85;;;;;;;16.73;61.20;101087.22;5019481;28;20053;-76
2022/07/13 02:26:40;;;;;;;13.43;12.48;;;;;;;16.71;61.39;101083.69;5021823;28;20037;-76
2022/07/13 02:29:06;;;;;;;12.73;11.93;;;;;;;16.73;60.72;101085.41;5025172;28;20053;-75
2022/07/13 02:31:34;;;;;;;11.77;10.98;;;;;;;16.83;60.58;101072.81;5024900;28;20119;-75
2022/07/13 02:34:02;;;;;;;12.45;11.48;;;;;;;16.91;60.16;101069.94;5029706;28;20037;-76
2022/07/13 02:36:27;;;;;;;13.05;12.25;;;;;;;16.97;60.26;101081.31;5001797;28;20036;-76
2022/07/13 02:38:52;;;;;;;13.45;12.45;;;;;;;16.91;60.62;101078.81;5034480;28;20517;-76
2022/07/13 02:41:18;;;;;;;12.25;11.25;;;;;;;16.88;60.42;101075.38;5020200;28;20374;-76
2022/07/13 02:43:43;;;;;;;14.57;13.77;;;;;;;16.91;61.35;101073.50;5026845;28;20037;-76
2022/07/13 02:46:10;;;;;;;15.85;14.85;;;;;;;16.90;60.83;101074.41;5020231;28;20041;-76
2022/07/13 02:48:36;;;;;;;17.17;16.15;;;;;;;16.93;60.97;101069.00;5025948;28;20041;-76
2022/07/13 02:51:02;;;;;;;18.73;17.73;;;;;;;16.88;61.04;101070.03;5028839;28;20106;-76
2022/07/13 02:53:27;;;;;;;18.40;17.40;;;;;;;16.83;61.72;101079.00;5018009;28;20472;-76
2022/07/13 02:55:53;;;;;;;18.20;17.17;;;;;;;16.83;60.94;101076.34;5024678;28;20041;-76
2022/07/13 02:58:18;;;;;;;18.73;17.73;;;;;;;16.83;60.96;101079.00;5042847;28;20037;-76
2022/07/13 03:00:43;;;;;;;17.65;16.65;;;;;;;16.79;61.41;101071.09;5028431;28;20503;-76
2022/07/13 03:03:09;;;;;;;14.82;13.88;;;;;;;16.78;61.98;101070.22;5032071;28;20033;-76
2022/07/13 03:05:34;;;;;;;15.98;14.95;;;;;;;16.80;61.74;101073.75;5021829;28;20076;-76
2022/07/13 03:07:59;;;;;;;12.82;12.02;;;;;;;16.90;61.25;101069.09;5026288;28;20146;-75
2022/07/13 03:10:25;;;;;;;12.77;11.82;;;;;;;16.90;60.85;101063.75;5030984;28;20033;-76
2022/07/13 03:12:55;;;;;;;13.02;11.75;;;;;;;16.92;61.32;101069.91;5025420;28;20530;-76
2022/07/13 03:15:21;;;;;;;12.23;11.32;;;;;;;16.84;61.40;101071.88;5024367;28;20033;-76
2022/07/13 03:17:46;;;;;;;12.43;11.63;;;;;;;16.79;61.70;101073.75;5025182;28;20047;-76
2022/07/13 03:20:13;;;;;;;12.50;11.60;;;;;;;16.85;61.25;101062.97;5021125;28;20030;-76
2022/07/13 03:22:38;;;;;;;12.15;11.25;;;;;;;16.90;61.23;101066.41;5024822;28;20033;-76
2022/07/13 03:25:05;;;;;;;11.77;10.65;;;;;;;16.93;60.94;101074.34;5027849;28;20519;-76
2022/07/13 03:27:30;;;;;;;10.90;10.30;;;;;;;17.02;60.83;101065.22;5027213;28;20039;-76
2022/07/13 03:29:56;;;;;;;11.57;10.60;;;;;;;16.97;61.25;101059.13;5019587;28;20034;-76
2022/07/13 03:32:22;;;;;;;11.68;10.98;;;;;;;17.03;60.57;101073.22;5028663;28;20492;-76
2022/07/13 03:34:47;;;;;;;12.60;11.68;;;;;;;17.08;61.01;101079.31;5037010;28;20033;-76
2022/07/13 03:37:17;;;;;;;12.00;11.20;;;;;;;17.03;61.92;101069.66;5023306;28;20033;-76
2022/07/13 03:39:42;;;;;;;10.98;10.27;;;;;;;17.06;60.66;101072.25;5035338;28;20084;-76
2022/07/13 03:42:09;;;;;;;12.15;11.25;;;;;;;17.18;60.38;101071.06;5021986;28;20061;-76
2022/07/13 03:44:34;;;;;;;11.55;10.85;;;;;;;17.27;59.60;101073.50;5021455;28;20065;-76
2022/07/13 03:47:00;;;;;;;11.23;10.63;;;;;;;17.33;59.78;101061.81;5036797;28;20038;-76
2022/07/13 03:49:27;;;;;;;10.98;10.27;;;;;;;17.32;60.08;101066.28;5023099;28;20029;-76
2022/07/13 03:51:52;;;;;;;11.60;10.48;;;;;;;17.28;60.39;101061.91;5032028;28;20048;-76
2022/07/13 03:54:18;;;;;;;11.55;10.77;;;;;;;17.30;60.40;101071.63;5024529;28;20209;-76
2022/07/13 03:56:44;;;;;;;11.18;10.38;;;;;;;17.39;59.85;101072.31;5024428;28;20412;-76
2022/07/13 03:59:09;;;;;;;11.95;11.20;;;;;;;17.45;60.12;101062.38;5024383;28;20079;-76
2022/07/13 04:01:35;;;;;;;11.45;10.70;;;;;;;17.45;60.51;101054.38;5022767;28;20025;-76
2022/07/13 04:04:03;;;;;;;10.95;9.95;;;;;;;17.43;60.78;101069.53;5025497;28;20042;-76
2022/07/13 04:06:29;;;;;;;10.90;10.20;;;;;;;17.46;59.95;101057.91;5022400;28;20575;-76
2022/07/13 04:08:55;;;;;;;9.80;9.20;;;;;;;17.51;59.45;101066.66;5035009;28;20057;-76
2022/07/13 04:11:20;;;;;;;10.40;9.50;;;;;;;17.55;59.74;101072.78;5023371;28;20461;-76
2022/07/13 04:13:46;;;;;;;11.65;10.85;;;;;;;17.46;59.89;101077.44;5020324;28;20026;-76
2022/07/13 04:16:12;;;;;;;11.60;10.48;;;;;;;17.49;59.84;101060.47;5026903;28;20029;-76
2022/07/13 04:18:39;;;;;;;13.15;12.05;;;;;;;17.57;60.08;101060.28;5017502;28;20037;-76
2022/07/13 04:21:07;;;;;;;12.13;10.93;;;;;;;17.63;59.64;101052.09;5036864;28;20420;-76
2022/07/13 04:23:33;;;;;;;12.35;11.48;;;;;;;17.72;59.13;101059.88;5021279;28;20087;-76
2022/07/13 04:25:58;;;;;;;13.27;12.25;;;;;;;17.77;58.69;101051.75;5023274;28;20041;-76
2022/07/13 04:28:24;;;;;;;18.95;16.77;;;;;;;17.79;58.88;101044.53;5019721;28;20441;-76
2022/07/13 04:30:51;;;;;;;12.80;11.68;;;;;;;17.82;58.76;101045.38;5023960;28;20065;-76
2022/07/13 04:33:17;;;;;;;12.93;12.02;;;;;;;17.78;59.70;101048.16;5024801;28;20091;-76
2022/07/13 04:35:42;;;;;;;13.70;12.82;;;;;;;17.81;60.21;101056.09;5030502;28;20036;-76
2022/07/13 04:38:08;;;;;;;12.65;11.60;;;;;;;17.88;59.01;101045.22;5037777;28;20087;-76
2022/07/13 04:40:34;;;;;;;14.55;13.30;;;;;;;17.93;58.67;101048.63;5035635;28;20400;-76
2022/07/13 04:43:00;;;;;;;13.85;12.60;;;;;;;18.01;58.59;101039.53;5032578;28;20020;-76
2022/07/13 04:45:25;;;;;;;14.45;13.35;;;;;;;18.09;58.61;101050.84;5034620;28;20029;-76
2022/07/13 04:47:53;;;;;;;16.75;15.65;;;;;;;18.17;58.04;101044.34;5031756;28;20073;-76
2022/07/13 04:50:19;;;;;;;16.23;14.77;;;;;;;18.26;57.96;101045.00;5022225;28;20065;-76
2022/07/13 04:52:44;;;;;;;14.30;13.25;;;;;;;18.34;57.93;101051.91;5024939;28;20493;-76
2022/07/13 04:55:10;;;;;;;16.65;15.52;;;;;;;18.40;57.30;101037.47;5031109;28;20088;-76
2022/07/13 04:57:36;;;;;;;14.98;14.00;;;;;;;18.45;57.64;101042.69;5027744;28;20026;-76
2022/07/13 05:00:06;;;;;;;13.02;12.27;;;;;;;18.51;57.51;101045.16;5022239;28;20500;-76
2022/07/13 05:02:32;;;;;;;15.38;14.05;;;;;;;18.57;57.28;101048.50;5036789;28;20037;-75
2022/07/13 05:04:57;;;;;;;14.07;12.95;;;;;;;18.65;57.24;101053.59;5027750;28;20037;-77
2022/07/13 05:07:23;;;;;;;12.05;11.07;;;;;;;18.74;56.75;101056.00;5019485;28;20109;-77
2022/07/13 05:09:49;;;;;;;12.75;11.95;;;;;;;18.79;56.76;101056.75;5035311;28;20041;-77
2022/07/13 05:12:15;;;;;;;12.10;11.00;;;;;;;18.89;56.47;101064.47;5021102;28;20519;-76
2022/07/13 05:14:40;;;;;;;13.70;12.80;;;;;;;18.92;56.03;101067.09;5016496;28;20034;-77
2022/07/13 05:17:07;;;;;;;11.38;10.68;;;;;;;18.98;56.14;101066.88;5019852;28;20382;-77
2022/07/13 05:19:33;;;;;;;11.07;10.38;;;;;;;18.96;56.27;101058.88;5020002;28;20034;-77
2022/07/13 05:21:58;;;;;;;13.32;12.43;;;;;;;18.97;56.45;101059.78;5017583;28;20061;-77
2022/07/13 05:24:25;;;;;;;14.15;13.35;;;;;;;19.11;56.51;101062.88;5022777;28;20076;-77
2022/07/13 05:26:50;;;;;;;14.30;13.15;;;;;;;19.19;56.13;101060.81;5025941;28;20041;-77
2022/07/13 05:29:16;;;;;;;16.23;15.32;;;;;;;19.35;55.42;101055.81;5021157;28;20037;-77
2022/07/13 05:31:42;;;;;;;15.32;14.38;;;;;;;19.52;55.54;101051.66;5032605;28;20034;-76
2022/07/13 05:34:08;;;;;;;15.90;14.90;;;;;;;19.68;54.74;101045.78;5028314;28;20025;-77
2022/07/13 05:36:38;;;;;;;15.60;14.57;;;;;;;19.93;54.72;101056.44;5018611;28;20042;-76
2022/07/13 05:39:04;;;;;;;14.85;13.63;;;;;;;20.04;54.98;101056.09;5021551;28;20040;-76
2022/07/13 05:41:29;;;;;;;17.25;16.25;;;;;;;20.18;54.17;101063.59;5015660;28;20037;-77
2022/07/13 05:43:54;;;;;;;19.60;18.30;;;;;;;20.23;54.18;101061.63;5020406;28;20052;-77
2022/07/13 05:46:21;;;;;;;17.60;16.20;;;;;;;20.28;53.99;101065.00;5030413;28;20038;-76
2022/07/13 05:48:47;;;;;;;14.13;13.23;;;;;;;20.29;53.27;101064.06;5002600;28;20137;-77
2022/07/13 05:51:12;;;;;;;13.63;12.45;;;;;;;20.43;52.91;101052.78;5030370;28;20041;-77
2022/07/13 05:53:38;;;;;;;13.70;12.90;;;;;;;20.54;52.97;101057.75;5028471;28;20408;-76
2022/07/13 05:56:03;;;;;;;15.00;14.20;;;;;;;20.66;52.67;101051.06;5032225;28;20033;-77
2022/07/13 05:58:29;;;;;;;15.60;14.55;;;;;;;20.81;52.28;101058.50;5031982;28;20048;-77
2022/07/13 06:00:54;;;;;;;14.38;13.40;;;;;;;20.82;52.57;101054.88;5035654;28;20037;-76
2022/07/13 06:03:19;;;;;;;13.80;12.80;;;;;;;20.92;51.93;101053.56;5027276;28;20045;-77
2022/07/13 06:05:45;;;;;;;13.18;12.45;;;;;;;20.93;51.76;101047.28;5026123;28;20041;-76
2022/07/13 06:08:10;;;;;;;12.48;11.77;;;;;;;21.06;51.51;101058.34;5023698;28;20037;-77
2022/07/13 06:10:35;;;;;;;10.77;10.00;;;;;;;21.18;51.20;101048.94;5020527;28;20045;-77
2022/07/13 06:13:01;;;;;;;11.10;10.30;;;;;;;21.28;51.30;101052.97;5021424;28;20034;-77
2022/07/13 06:15:26;;;;;;;9.85;9.25;;;;;;;21.35;50.56;101054.47;5020858;28;20068;-77
2022/07/13 06:17:51;;;;;;;11.30;10.50;;;;;;;21.49;51.21;101053.03;5020737;28;20037;-77
2022/07/13 06:20:17;;;;;;;10.93;10.10;;;;;;;21.56;50.29;101049.13;5022241;28;20042;-77
2022/07/13 06:22:42;;;;;;;11.20;10.07;;;;;;;21.55;50.10;101047.38;5025111;28;20037;-77
2022/07/13 06:25:08;;;;;;;12.02;10.82;;;;;;;21.60;50.00;101045.38;5026973;28;20045;-77
2022/07/13 06:27:33;;;;;;;9.30;8.38;;;;;;;21.67;49.49;101042.34;5023723;28;20069;-76
2022/07/13 06:29:59;;;;;;;8.60;8.02;;;;;;;21.69;49.07;101042.25;5027607;28;20072;-77
2022/07/13 06:32:24;;;;;;;8.85;8.25;;;;;;;21.83;48.97;101041.66;5027683;28;20476;-76
2022/07/13 06:34:49;;;;;;;8.70;8.20;;;;;;;21.97;48.60;101052.66;5025188;28;20500;-76
2022/07/13 06:37:14;;;;;;;9.15;8.55;;;;;;;22.10;48.71;101045.78;5023291;28;20418;-76
2022/07/13 06:39:40;;;;;;;9.88;9.25;;;;;;;22.19;48.58;101047.22;5031372;28;20510;-76
2022/07/13 06:42:05;;;;;;;9.35;8.60;;;;;;;22.29;47.85;101037.75;5028975;28;20485;-76
2022/07/13 06:44:30;;;;;;;12.23;11.32;;;;;;;22.28;47.17;101024.41;5026189;28;20700;-76
2022/07/13 06:46:59;;;;;;;10.18;9.40;;;;;;;22.49;47.42;101034.13;5041349;28;20108;-77
2022/07/13 06:49:25;;;;;;;20.90;19.60;;;;;;;22.66;47.07;101033.34;5023631;28;20034;-78
2022/07/13 06:51:50;;;;;;;14.13;13.20;;;;;;;22.70;46.86;101029.53;5028749;28;20046;-78
2022/07/13 06:54:15;;;;;;;11.20;10.27;;;;;;;22.83;46.84;101026.25;5028383;28;20053;-77
2022/07/13 06:56:41;;;;;;;11.60;10.60;;;;;;;23.04;46.57;101035.97;5026011;28;20109;-77
2022/07/13 06:59:06;;;;;;;11.65;10.77;;;;;;;23.23;46.10;101026.97;5024221;28;20048;-77
2022/07/13 07:01:32;;;;;;;14.00;13.07;;;;;;;23.22;45.66;101022.53;5019668;28;20034;-77
2022/07/13 07:03:57;;;;;;;12.20;11.05;;;;;;;23.23;45.55;101013.50;5025302;28;20033;-77
2022/07/13 07:06:22;;;;;;;11.85;10.57;;;;;;;23.37;44.83;101021.72;5023919;28;20046;-77
2022/07/13 07:08:48;;;;;;;11.40;10.60;;;;;;;23.47;44.80;101020.28;5026429;28;20037;-77
2022/07/13 07:11:13;;;;;;;13.13;12.15;;;;;;;23.72;44.83;101010.97;5022310;28;20053;-77
2022/07/13 07:13:38;;;;;;;14.40;13.50;;;;;;;23.89;43.88;101005.53;5025168;28;20037;-77
2022/07/13 07:16:04;;;;;;;18.80;17.70;;;;;;;24.04;43.57;100993.91;5030236;28;20033;-77
2022/07/13 07:18:29;;;;;;;19.60;18.27;;;;;;;24.15;43.52;100995.16;5025030;28;20037;-77
2022/07/13 07:20:55;;;;;;;18.67;17.60;;;;;;;24.20;43.12;101001.16;5023462;28;20034;-77
2022/07/13 07:23:20;;;;;;;17.40;16.42;;;;;;;24.36;41.74;100988.53;5023806;28;20481;-77
2022/07/13 07:25:45;;;;;;;16.33;15.43;;;;;;;24.45;42.34;101001.56;5031558;28;20072;-77
2022/07/13 07:28:11;;;;;;;13.63;12.88;;;;;;;24.61;41.70;101006.09;5027704;28;20076;-78
2022/07/13 07:30:37;;;;;;;10.93;10.23;;;;;;;24.69;41.40;100991.19;5023651;28;20044;-77
2022/07/13 07:33:02;;;;;;;9.38;8.77;;;;;;;24.80;41.35;100995.09;5026188;28;20400;-77
2022/07/13 07:35:28;;;;;;;11.88;10.68;;;;;;;25.02;40.11;100989.28;5022592;28;20040;-77
2022/07/13 07:37:54;;;;;;;11.35;10.52;;;;;;;25.25;40.61;100986.09;5024784;28;20034;-77
2022/07/13 07:40:19;;;;;;;17.30;15.70;;;;;;;25.26;40.71;100987.88;5030957;28;20038;-77
2022/07/13 07:42:44;;;;;;;16.88;15.75;;;;;;;25.29;39.78;100976.88;5024149;28;20026;-78
2022/07/13 07:45:10;;;;;;;16.02;14.80;;;;;;;25.53;39.56;100974.50;5025310;28;20045;-78
2022/07/13 07:47:36;;;;;;;13.43;12.40;;;;;;;25.53;39.21;100982.59;5024252;28;20044;-78
2022/07/13 07:50:02;;;;;;;14.18;13.25;;;;;;;25.78;39.56;100981.06;5023162;28;20037;-78
2022/07/13 07:52:28;;;;;;;9.15;8.50;;;;;;;25.83;38.61;100983.50;5024302;28;20063;-77
2022/07/13 07:54:53;;;;;;;9.82;9.23;;;;;;;25.98;38.84;100972.59;5022577;28;20041;-78
2022/07/13 07:57:19;;;;;;;8.07;7.57;;;;;;;26.08;37.95;100975.59;5032643;28;20049;-77
2022/07/13 07:59:44;;;;;;;8.18;7.53;;;;;;;26.03;38.34;100980.44;5026592;28;20040;-77
2022/07/13 08:02:10;;;;;;;8.38;7.75;;;;;;;26.15;38.34;100970.69;5022012;28;20026;-77
2022/07/13 08:04:35;;;;;;;7.93;7.15;;;;;;;26.28;38.32;100971.63;5024423;28;20049;-77
2022/07/13 08:07:00;;;;;;;6.32;5.72;;;;;;;26.27;38.21;100966.28;5027209;28;20542;-78
2022/07/13 08:09:26;;;;;;;6.95;6.45;;;;;;;26.28;38.18;100958.09;5024459;28;20548;-78
2022/07/13 08:11:54;;;;;;;6.53;6.03;;;;;;;26.45;38.05;100951.56;5024736;28;20045;-77
2022/07/13 08:14:21;;;;;;;6.95;5.68;;;;;;;26.55;38.00;100955.44;5024839;28;20045;-77
2022/07/13 08:16:46;;;;;;;6.97;6.47;;;;;;;26.86;36.98;100956.09;5018973;28;20041;-78
2022/07/13 08:19:11;;;;;;;7.75;6.20;;;;;;;27.06;35.85;100952.00;5026060;28;20420;-78
2022/07/13 08:21:37;;;;;;;6.18;5.78;;;;;;;27.29;35.99;100953.16;5021175;28;20401;-78
2022/07/13 08:24:02;;;;;;;15.27;6.07;;;;;;;27.47;35.79;100948.28;5022871;28;20473;-78
2022/07/13 08:26:29;;;;;;;7.55;7.05;;;;;;;27.53;35.08;100951.41;5022468;28;20041;-76
2022/07/13 08:28:56;;;;;;;9.82;9.23;;;;;;;27.21;33.95;100945.56;5027687;28;20030;-77
2022/07/13 08:31:22;;;;;;;9.80;9.30;;;;;;;27.36;34.03;100943.63;5031915;28;20435;-78
2022/07/13 08:39:17;;;;;;;7.97;7.47;;;;;;;28.13;33.27;100944.44;5036567;28;20102;-79
2022/07/13 08:41:43;;;;;;;7.60;7.00;;;;;;;28.18;33.09;100935.97;5037675;28;20037;-78
2022/07/13 08:44:08;;;;;;;9.65;9.07;;;;;;;28.24;32.60;100940.06;5037431;28;20094;-79
2022/07/13 08:46:33;;;;;;;7.90;7.35;;;;;;;28.40;32.59;100933.41;5040093;28;20029;-78
2022/07/13 08:49:00;;;;;;;10.25;9.43;;;;;;;28.49;32.15;100929.16;5031955;28;20041;-79
2022/07/13 08:52:01;;;;;;;7.72;7.22;;;;;;;28.44;32.49;100927.78;5063662;23;20041;-78
2022/07/13 08:54:43;;;;;;;6.10;5.57;;;;;;;28.31;32.85;100920.50;5040251;28;20033;-79
2022/07/13 08:57:10;;;;;;;7.40;6.90;;;;;;;28.33;32.53;100918.56;5040472;28;20029;-79
2022/07/13 08:59:37;;;;;;;8.90;8.30;;;;;;;28.51;32.58;100921.78;5042134;28;20111;-79
2022/07/13 09:02:02;;;;;;;8.77;8.27;;;;;;;28.56;32.05;100919.56;5041801;28;20558;-79
2022/07/13 09:04:28;;;;;;;7.43;6.82;;;;;;;28.33;32.04;100906.84;5045493;28;20127;-79
2022/07/13 09:06:54;;;;;;;10.23;9.43;;;;;;;28.30;31.75;100904.34;5042353;28;20126;-79
2022/07/13 09:09:33;;;;;;;10.68;10.02;;;;;;;28.24;31.37;100904.78;5044448;28;20055;-79
2022/07/13 09:12:09;;;;;;;10.02;9.43;;;;;;;27.97;31.46;100909.44;5043479;28;20037;-79
2022/07/13 09:14:35;;;;;;;8.77;8.18;;;;;;;28.09;31.95;100912.25;5040993;28;20120;-78
2022/07/13 09:17:01;;;;;;;8.70;8.10;;;;;;;28.32;32.58;100903.25;5042760;28;20095;-79
2022/07/13 09:19:34;;;;;;;8.82;8.23;;;;;;;28.18;30.96;100917.84;5043273;28;20041;-79
2022/07/13 09:22:12;;;;;;;10.55;9.95;;;;;;;28.16;30.88;100921.63;5040361;28;20167;-79
2022/07/13 09:24:42;;;;;;;9.35;8.75;;;;;;;28.21;30.88;100908.59;5033005;28;20426;-79
2022/07/13 09:27:08;;;;;;;9.73;9.13;;;;;;;28.46;31.54;100909.53;5045630;28;20048;-79
2022/07/13 09:29:38;;;;;;;9.65;8.88;;;;;;;28.59;30.86;100891.31;5038981;28;20037;-79
2022/07/13 09:32:08;;;;;;;9.73;9.23;;;;;;;28.86;31.02;100888.31;5036769;28;20037;-79
2022/07/13 09:34:51;;;;;;;11.90;11.10;;;;;;;29.10;29.87;100885.56;5030106;28;20037;-79
2022/07/13 09:37:18;;;;;;;10.50;9.90;;;;;;;29.22;29.97;100884.63;5035730;28;20041;-78
2022/07/13 09:39:57;;;;;;;8.15;7.65;;;;;;;29.20;28.65;100875.72;5037410;28;20060;-79
2022/07/13 09:42:30;;;;;;;9.75;9.15;;;;;;;29.20;29.51;100880.28;5037034;28;20041;-78
2022/07/13 09:47:47;;;;;;;9.88;9.02;;;;;;;29.15;29.59;100882.50;5039515;28;20029;-78
2022/07/13 09:50:13;;;;;;;8.80;8.18;;;;;;;29.28;29.76;100873.25;5035390;28;20037;-78
2022/07/13 09:52:39;;;;;;;9.98;9.38;;;;;;;29.48;28.41;100868.94;5076010;22;20050;-79
2022/07/13 09:55:06;;;;;;;8.82;8.23;;;;;;;29.91;28.17;100867.34;5024789;28;20570;-79
2022/07/13 09:57:33;;;;;;;8.93;8.23;;;;;;;30.19;28.90;100865.91;5021259;28;20469;-78
2022/07/13 10:00:00;;;;;;;8.20;7.70;;;;;;;30.13;27.19;100859.13;5005626;28;20120;-78
2022/07/13 10:02:26;;;;;;;8.80;8.30;;;;;;;30.11;27.91;100873.88;5006570;28;20108;-78
2022/07/13 10:04:52;;;;;;;7.13;6.63;;;;;;;30.21;28.49;100882.09;5001529;28;20466;-78
2022/07/13 10:07:18;;;;;;;8.35;7.85;;;;;;;30.44;27.69;100870.19;5008523;28;20046;-78
2022/07/13 10:09:43;;;;;;;7.88;7.38;;;;;;;30.78;27.69;100872.75;5004150;28;20041;-78
2022/07/13 10:12:10;;;;;;;7.57;7.13;;;;;;;30.92;26.82;100877.94;5013388;28;20030;-78
2022/07/13 10:14:37;;;;;;;7.82;7.10;;;;;;;30.96;26.91;100871.19;5012773;28;20045;-78
2022/07/13 10:17:13;;;;;;;6.90;6.43;;;;;;;30.84;26.49;100861.38;5018398;28;20113;-78
2022/07/13 10:19:47;;;;;;;7.07;6.13;;;;;;;30.95;26.58;100858.59;5012440;28;20034;-78
2022/07/13 10:22:18;;;;;;;7.57;7.07;;;;;;;31.21;26.73;100861.75;5010287;28;20038;-78
2022/07/13 10:24:57;;;;;;;6.65;6.18;;;;;;;31.60;26.55;100867.44;5016659;28;20034;-78
2022/07/13 10:27:30;;;;;;;7.38;6.68;;;;;;;31.72;25.33;100862.72;5006503;28;20399;-78
2022/07/13 10:29:57;;;;;;;6.80;6.38;;;;;;;31.97;24.97;100857.81;5003211;28;20042;-78
2022/07/13 10:32:26;;;;;;;7.10;6.53;;;;;;;32.04;25.97;100853.50;4999831;28;20035;-78
2022/07/13 10:34:58;;;;;;;7.80;7.30;;;;;;;32.35;25.63;100845.19;5004689;28;20046;-78
2022/07/13 10:37:25;;;;;;;6.10;5.70;;;;;;;32.23;23.98;100848.06;5002359;28;20715;-78
2022/07/13 10:40:15;;;;;;;7.55;7.05;;;;;;;31.51;25.59;100851.88;4991656;28;20037;-78
2022/07/13 10:42:53;;;;;;;7.32;6.93;;;;;;;31.37;25.01;100853.09;4995398;28;20093;-78
2022/07/13 10:45:40;;;;;;;8.05;7.55;;;;;;;31.12;25.14;100846.19;5001231;28;20054;-79
2022/07/13 10:48:06;;;;;;;8.60;4.22;;;;;;;31.46;25.12;100839.66;5004810;28;20037;-78
2022/07/13 10:50:45;;;;;;;5.47;5.07;;;;;;;31.41;25.85;100846.41;5008041;28;20118;-78
2022/07/13 10:53:12;;;;;;;5.65;5.18;;;;;;;31.28;25.86;100840.25;5014475;28;20160;-78
2022/07/13 10:55:45;;;;;;;6.25;5.80;;;;;;;31.56;25.14;100841.41;5016623;28;20046;-78
2022/07/13 10:58:29;;;;;;;5.95;5.55;;;;;;;31.93;25.36;100831.78;5002115;28;20050;-78
2022/07/13 11:00:54;;;;;;;5.20;4.80;;;;;;;32.02;25.10;100823.63;5000845;28;20081;-78
2022/07/13 11:03:28;;;;;;;5.88;5.15;;;;;;;31.96;24.98;100832.34;5003916;28;20108;-78
2022/07/13 11:06:21;;;;;;;6.50;6.10;;;;;;;32.61;23.94;100826.41;5009238;28;20116;-78
2022/07/13 11:09:07;;;;;;;6.28;5.70;;;;;;;32.47;23.20;100816.75;5006358;28;20093;-79
2022/07/13 11:11:32;;;;;;;5.53;5.13;;;;;;;32.30;23.86;100838.31;5013224;28;20056;-78
2022/07/13 11:13:58;;;;;;;7.32;6.93;;;;;;;32.18;24.42;100822.22;5008243;28;20506;-79
2022/07/13 11:16:46;;;;;;;5.50;5.10;;;;;;;32.57;24.02;100809.44;5019929;28;20041;-79
2022/07/13 11:19:12;;;;;;;5.88;5.38;;;;;;;32.73;22.71;100817.03;5018628;28;20068;-79
2022/07/13 11:22:08;;;;;;;6.00;5.60;;;;;;;32.81;21.46;100824.50;5011808;28;20061;-78